Time;durP1;ratioP1;P1;durP2;ratioP2;P2;SDS_P1;SDS_P2;PMS_P1;PMS_P2;Temp;Humidity;BMP_temperature;BMP_pressure;BME280_temperature;BME280_humidity;BME280_pressure;Samples;Min_cycle;Max_cycle;Signal;HPM_P1;HPM_P2
2021/08/19 00:01:01;;;;;;;0.20;0.20;;;;;;;20.71;59.07;101419.94;5043515;28;20064;-85
2021/08/19 00:03:28;;;;;;;0.10;0.10;;;;;;;20.67;59.44;101420.09;5044794;28;20041;-86
2021/08/19 00:05:55;;;;;;;0.08;0.08;;;;;;;20.69;59.48;101407.41;5042220;28;20103;-87
2021/08/19 00:08:21;;;;;;;0.05;0.05;;;;;;;20.72;59.20;101403.72;5040463;28;20032;-86
2021/08/19 00:10:48;;;;;;;1.55;0.20;;;;;;;20.71;59.67;101404.69;5052217;28;20037;-87
2021/08/19 00:13:14;;;;;;;0.10;0.10;;;;;;;20.69;59.87;101404.72;5053204;28;20467;-87
2021/08/19 00:15:41;;;;;;;0.10;0.10;;;;;;;20.66;59.83;101399.50;5052867;28;20373;-87
2021/08/19 00:18:07;;;;;;;0.20;0.20;;;;;;;20.60;60.10;101399.84;5053002;28;20108;-87
2021/08/19 00:20:33;;;;;;;0.10;0.10;;;;;;;20.58;60.20;101407.13;5052916;28;20040;-86
2021/08/19 00:23:01;;;;;;;0.00;0.00;;;;;;;20.57;60.32;101399.13;5049362;28;20112;-87
2021/08/19 00:25:29;;;;;;;0.10;0.10;;;;;;;20.55;60.18;101396.53;5032905;28;20025;-86
2021/08/19 00:27:55;;;;;;;0.00;0.00;;;;;;;20.56;60.41;101398.28;5033077;28;20109;-85
2021/08/19 00:30:22;;;;;;;0.20;0.20;;;;;;;20.56;60.32;101400.97;5046051;28;20426;-87
2021/08/19 00:32:48;;;;;;;0.10;0.10;;;;;;;20.58;60.35;101401.75;5036466;28;20108;-86
2021/08/19 00:35:14;;;;;;;0.10;0.10;;;;;;;20.56;60.61;101398.28;5038320;28;20029;-87
2021/08/19 00:37:41;;;;;;;0.20;0.20;;;;;;;20.62;60.01;101397.94;5032785;28;20038;-86
2021/08/19 00:40:08;;;;;;;0.10;0.10;;;;;;;20.63;60.08;101396.13;5052077;28;20541;-86
2021/08/19 00:42:34;;;;;;;0.10;0.10;;;;;;;20.61;60.45;101398.91;5052862;28;20071;-86
2021/08/19 00:45:01;;;;;;;0.95;0.50;;;;;;;20.63;59.92;101388.03;5052719;28;20033;-87
2021/08/19 00:47:29;;;;;;;0.10;0.10;;;;;;;20.52;61.04;101402.06;5052642;28;20017;-86
2021/08/19 00:50:01;;;;;;;1.25;0.63;;;;;;;20.60;60.71;101398.97;5052987;28;20100;-87
2021/08/19 00:52:29;;;;;;;0.00;0.00;;;;;;;20.61;60.38;101398.00;5056174;28;20447;-86
2021/08/19 00:54:56;;;;;;;0.17;0.17;;;;;;;20.59;60.41;101392.72;5043618;28;20044;-86
2021/08/19 00:57:23;;;;;;;0.10;0.10;;;;;;;20.60;60.63;101391.78;5036546;28;20018;-86
2021/08/19 00:59:52;;;;;;;0.10;0.10;;;;;;;20.59;60.57;101384.63;5052388;28;20108;-86
2021/08/19 01:02:20;;;;;;;0.10;0.10;;;;;;;20.62;60.33;101384.50;5055936;28;20071;-85
2021/08/19 01:04:48;;;;;;;0.10;0.10;;;;;;;20.62;60.41;101395.25;5055885;28;20039;-87
2021/08/19 01:07:16;;;;;;;0.10;0.10;;;;;;;20.59;61.06;101383.78;5056389;28;20079;-86
2021/08/19 01:09:52;;;;;;;0.10;0.10;;;;;;;20.65;61.06;101389.69;5056257;28;20033;-87
2021/08/19 01:12:21;;;;;;;0.10;0.10;;;;;;;20.68;60.89;101383.28;5057183;28;20483;-87
2021/08/19 01:14:55;;;;;;;0.10;0.10;;;;;;;20.70;60.74;101384.06;5036582;28;20029;-87
2021/08/19 01:17:29;;;;;;;0.00;0.00;;;;;;;20.72;60.69;101387.56;5036287;28;20387;-87
2021/08/19 01:20:03;;;;;;;0.20;0.20;;;;;;;20.73;60.74;101383.06;5051200;28;20041;-87
2021/08/19 01:22:29;;;;;;;0.10;0.10;;;;;;;20.72;60.73;101375.94;5056059;28;20108;-87
2021/08/19 01:24:56;;;;;;;0.10;0.10;;;;;;;20.72;61.30;101375.94;5055844;28;20463;-87
2021/08/19 01:27:23;;;;;;;0.00;0.00;;;;;;;20.74;60.78;101374.03;5055567;28;20025;-86
2021/08/19 01:29:51;;;;;;;0.13;0.13;;;;;;;20.74;60.81;101368.66;5055990;28;20026;-84
2021/08/19 01:32:19;;;;;;;0.10;0.10;;;;;;;20.72;60.75;101374.09;5055964;28;20029;-84
2021/08/19 01:34:45;;;;;;;0.30;0.30;;;;;;;20.75;60.90;101373.06;5056276;28;20082;-85
2021/08/19 01:37:12;;;;;;;0.10;0.10;;;;;;;20.75;61.10;101368.56;5055875;28;20021;-86
2021/08/19 01:39:39;;;;;;;0.10;0.10;;;;;;;20.76;61.15;101372.09;5055673;28;20033;-84
2021/08/19 01:42:06;;;;;;;0.35;0.35;;;;;;;20.74;61.00;101374.03;5054906;28;20087;-85
2021/08/19 01:44:34;;;;;;;0.52;0.52;;;;;;;20.69;60.88;101377.78;5055505;28;20039;-85
2021/08/19 01:47:02;;;;;;;0.10;0.10;;;;;;;20.62;61.00;101381.78;5055593;28;20082;-85
2021/08/19 01:49:30;;;;;;;0.10;0.10;;;;;;;20.55;61.27;101384.88;5055330;28;20075;-87
2021/08/19 01:51:58;;;;;;;0.10;0.10;;;;;;;20.49;60.99;101380.72;5054993;28;20029;-87
2021/08/19 01:54:26;;;;;;;0.10;0.10;;;;;;;20.44;61.43;101383.63;5055657;28;20033;-86
2021/08/19 01:56:53;;;;;;;0.20;0.20;;;;;;;20.40;61.49;101373.09;5055678;28;20132;-87
2021/08/19 01:59:19;;;;;;;0.00;0.00;;;;;;;20.40;61.43;101382.06;5055398;28;20029;-86
2021/08/19 02:01:45;;;;;;;0.15;0.15;;;;;;;20.42;61.58;101385.53;5055591;28;20029;-86
2021/08/19 02:04:12;;;;;;;0.10;0.10;;;;;;;20.43;62.43;101383.72;5055247;28;20040;-86
2021/08/19 02:06:38;;;;;;;0.47;0.47;;;;;;;20.39;62.43;101380.31;5053960;28;20025;-87
2021/08/19 02:09:06;;;;;;;0.20;0.20;;;;;;;20.38;62.39;101381.25;5054960;28;20437;-86
2021/08/19 02:11:32;;;;;;;0.20;0.20;;;;;;;20.40;61.94;101375.78;5054132;28;20074;-85
2021/08/19 02:13:58;;;;;;;0.20;0.20;;;;;;;20.34;61.79;101382.38;5054973;28;20028;-85
2021/08/19 02:16:25;;;;;;;0.10;0.10;;;;;;;20.28;61.91;101378.19;5055135;28;20423;-85
2021/08/19 02:18:51;;;;;;;0.10;0.10;;;;;;;20.22;62.09;101381.19;5055193;28;20207;-85
2021/08/19 02:21:17;;;;;;;0.10;0.10;;;;;;;20.15;62.13;101380.66;5054862;28;20025;-85
2021/08/19 02:23:44;;;;;;;0.00;0.00;;;;;;;20.12;62.32;101382.63;5054720;28;20059;-85
2021/08/19 02:26:10;;;;;;;0.10;0.10;;;;;;;20.08;62.59;101375.69;5054385;28;20033;-85
2021/08/19 02:28:37;;;;;;;0.10;0.10;;;;;;;20.02;63.02;101375.03;5054626;28;20033;-85
2021/08/19 02:31:03;;;;;;;0.20;0.20;;;;;;;20.01;62.88;101381.38;5054970;28;20064;-85
2021/08/19 02:33:29;;;;;;;0.00;0.00;;;;;;;20.04;62.60;101374.97;5054681;28;20124;-85
2021/08/19 02:35:56;;;;;;;3.40;0.50;;;;;;;20.04;62.92;101377.66;5054329;28;20029;-85
2021/08/19 02:38:22;;;;;;;0.10;0.10;;;;;;;20.07;62.82;101369.41;5054668;28;20032;-85
2021/08/19 02:40:49;;;;;;;1.90;1.13;;;;;;;20.11;62.77;101364.75;5054511;28;20029;-84
2021/08/19 02:43:15;;;;;;;0.20;0.20;;;;;;;20.12;62.95;101364.66;5054376;28;20112;-85
2021/08/19 02:45:41;;;;;;;4.95;0.93;;;;;;;20.13;62.94;101363.72;5054310;28;20032;-85
2021/08/19 02:48:08;;;;;;;0.10;0.10;;;;;;;20.15;62.95;101366.31;5052715;28;20072;-85
2021/08/19 02:50:34;;;;;;;0.20;0.20;;;;;;;20.17;62.97;101365.28;5054295;28;20033;-85
2021/08/19 02:53:01;;;;;;;0.10;0.10;;;;;;;20.19;63.04;101365.22;5054310;28;20053;-85
2021/08/19 02:55:27;;;;;;;0.10;0.10;;;;;;;20.21;62.78;101357.94;5054701;28;20025;-85
2021/08/19 02:57:53;;;;;;;0.10;0.10;;;;;;;20.24;62.87;101363.16;5054504;28;20059;-85
2021/08/19 03:00:20;;;;;;;0.50;0.50;;;;;;;20.20;63.25;101356.22;5054217;28;20498;-85
2021/08/19 03:02:46;;;;;;;0.55;0.55;;;;;;;20.24;62.68;101360.47;5053988;28;20037;-85
2021/08/19 03:05:22;;;;;;;0.08;0.08;;;;;;;20.30;62.61;101357.47;5066917;23;20041;-91
2021/08/19 03:07:49;;;;;;;0.10;0.10;;;;;;;20.29;62.79;101357.56;5053568;28;20029;-90
2021/08/19 03:10:18;;;;;;;0.05;0.05;;;;;;;20.28;62.77;101348.59;5058564;28;20442;-91
2021/08/19 03:12:44;;;;;;;0.63;0.63;;;;;;;20.28;62.87;101350.41;5055944;28;20025;-90
2021/08/19 03:15:11;;;;;;;0.10;0.10;;;;;;;20.30;62.71;101348.50;5037259;28;20040;-89
2021/08/19 03:17:38;;;;;;;0.00;0.00;;;;;;;20.27;62.95;101354.91;5041045;28;20087;-91
2021/08/19 03:20:05;;;;;;;0.47;0.47;;;;;;;20.33;62.54;101351.91;5048964;28;20029;-90
2021/08/19 03:22:31;;;;;;;0.00;0.00;;;;;;;20.29;63.17;101353.03;5041152;28;20915;-90
2021/08/19 03:24:59;;;;;;;0.10;0.10;;;;;;;20.35;63.00;101350.00;5053213;28;20041;-90
2021/08/19 03:27:28;;;;;;;0.28;0.28;;;;;;;20.35;63.17;101347.31;5046156;28;20029;-89
2021/08/19 03:29:55;;;;;;;0.10;0.10;;;;;;;20.34;63.38;101358.16;5043823;28;20029;-90
2021/08/19 03:32:21;;;;;;;0.38;0.38;;;;;;;20.40;63.30;101346.19;5053899;28;20110;-90
2021/08/19 03:34:48;;;;;;;0.90;0.90;;;;;;;20.40;63.43;101348.88;5041427;28;20032;-90
2021/08/19 03:37:14;;;;;;;0.30;0.30;;;;;;;20.35;63.78;101352.69;5033593;28;20469;-90
2021/08/19 03:39:43;;;;;;;1.35;1.25;;;;;;;20.43;63.24;101346.91;5033754;28;20030;-90
2021/08/19 03:42:10;;;;;;;0.35;0.30;;;;;;;20.47;63.13;101348.50;5033357;28;20038;-89
2021/08/19 03:44:39;;;;;;;1.00;0.95;;;;;;;20.42;63.58;101347.84;5050434;28;20037;-90
2021/08/19 03:47:05;;;;;;;0.13;0.13;;;;;;;20.47;63.00;101348.50;5054232;28;20419;-90
2021/08/19 03:49:40;;;;;;;0.05;0.05;;;;;;;20.55;62.94;101339.13;5053911;28;20025;-90
2021/08/19 03:52:06;;;;;;;0.10;0.10;;;;;;;20.56;62.99;101349.81;5052161;28;20033;-90
2021/08/19 03:54:38;;;;;;;0.20;0.20;;;;;;;20.54;63.19;101346.34;5039324;28;20384;-90
2021/08/19 03:57:07;;;;;;;0.10;0.10;;;;;;;20.61;62.94;101352.25;5029162;28;20033;-90
2021/08/19 03:59:36;;;;;;;0.47;0.43;;;;;;;20.52;63.14;101348.22;5032446;28;20026;-90
2021/08/19 04:02:10;;;;;;;0.10;0.10;;;;;;;20.61;63.08;101345.06;5034249;28;20037;-90
2021/08/19 04:04:39;;;;;;;0.10;0.10;;;;;;;20.62;62.63;101344.09;5032932;28;20033;-90
2021/08/19 04:07:10;;;;;;;1.17;0.90;;;;;;;20.56;63.14;101346.25;5034778;28;20063;-91
2021/08/19 04:09:39;;;;;;;0.00;0.00;;;;;;;20.62;63.13;101340.53;5041185;28;20025;-91
2021/08/19 04:12:26;;;;;;;1.75;1.35;;;;;;;20.69;62.83;101340.09;5053338;28;20029;-91
2021/08/19 04:14:56;;;;;;;0.10;0.10;;;;;;;20.59;63.20;101346.94;5026337;28;20053;-90
2021/08/19 04:17:28;;;;;;;0.35;0.35;;;;;;;20.57;63.47;101351.53;5026575;28;20032;-91
2021/08/19 04:20:00;;;;;;;0.68;0.68;;;;;;;20.61;63.20;101347.75;5033072;28;20025;-91
2021/08/19 04:22:33;;;;;;;0.10;0.10;;;;;;;20.65;62.96;101352.00;5038519;28;20031;-90
2021/08/19 04:25:02;;;;;;;0.10;0.10;;;;;;;20.56;63.33;101349.81;5047420;28;20069;-91
2021/08/19 04:27:30;;;;;;;0.00;0.00;;;;;;;20.55;63.21;101345.38;5036904;28;20029;-90
2021/08/19 04:29:59;;;;;;;0.10;0.10;;;;;;;20.63;62.86;101339.56;5049387;28;20464;-90
2021/08/19 04:32:31;;;;;;;0.20;0.20;;;;;;;20.68;62.93;101342.88;5047491;28;20044;-89
2021/08/19 04:35:00;;;;;;;0.00;0.00;;;;;;;20.72;62.60;101338.25;5041131;28;20025;-90
2021/08/19 04:37:29;;;;;;;0.10;0.10;;;;;;;20.72;62.84;101340.94;5050411;28;20029;-90
2021/08/19 04:39:55;;;;;;;0.63;0.40;;;;;;;20.74;62.49;101339.03;5047519;28;20030;-89
2021/08/19 04:42:24;;;;;;;2.13;0.68;;;;;;;20.68;62.64;101343.75;5036952;28;20060;-90
2021/08/19 04:44:51;;;;;;;0.43;0.43;;;;;;;20.69;62.64;101341.94;5042315;28;20040;-89
2021/08/19 04:47:20;;;;;;;0.10;0.10;;;;;;;20.78;62.34;101337.91;5055665;28;20510;-90
2021/08/19 04:49:49;;;;;;;0.08;0.08;;;;;;;20.72;62.85;101344.47;5031660;28;20030;-90
2021/08/19 04:52:15;;;;;;;0.63;0.63;;;;;;;20.74;62.35;101342.59;5036531;28;20037;-89
2021/08/19 04:54:44;;;;;;;0.08;0.08;;;;;;;20.77;62.40;101341.53;5056572;28;20460;-90
2021/08/19 04:57:13;;;;;;;0.00;0.00;;;;;;;20.80;62.10;101346.78;5047965;28;20048;-92
2021/08/19 04:59:43;;;;;;;1.17;1.10;;;;;;;20.84;62.09;101343.81;5052577;28;20409;-90
2021/08/19 05:02:24;;;;;;;0.22;0.22;;;;;;;20.82;62.01;101345.72;5022503;28;20454;-90
2021/08/19 05:05:30;;;;;;;0.22;0.22;;;;;;;20.93;61.76;101345.13;5020091;28;20057;-90
2021/08/19 05:08:06;;;;;;;0.10;0.10;;;;;;;20.90;61.89;101348.00;5040338;28;20025;-90
2021/08/19 05:11:03;;;;;;;0.10;0.10;;;;;;;20.95;61.63;101343.22;5038712;28;20044;-90
2021/08/19 05:13:44;;;;;;;0.15;0.15;;;;;;;20.87;61.88;101344.59;5056297;28;20391;-91
2021/08/19 05:16:50;;;;;;;;;;;;;;;;;;;;;
2021/08/19 05:19:24;;;;;;;0.00;0.00;;;;;;;20.82;61.76;101353.81;5049772;28;20064;-90
2021/08/19 05:21:50;;;;;;;0.10;0.10;;;;;;;20.84;61.67;101349.19;5027884;28;20065;-89
2021/08/19 05:24:20;;;;;;;0.00;0.00;;;;;;;20.83;61.63;101346.59;5016197;28;20026;-88
2021/08/19 05:26:46;;;;;;;0.00;0.00;;;;;;;20.91;61.54;101354.25;5046896;28;20030;-90
2021/08/19 05:29:13;;;;;;;0.10;0.10;;;;;;;20.79;61.54;101361.19;5039434;28;20392;-89
2021/08/19 05:31:41;;;;;;;0.00;0.00;;;;;;;20.93;61.31;101361.28;5034780;28;20029;-90
2021/08/19 05:34:08;;;;;;;0.10;0.10;;;;;;;20.96;61.26;101362.94;5034712;28;20040;-90
2021/08/19 05:36:37;;;;;;;0.10;0.10;;;;;;;20.99;61.17;101370.84;5034847;28;20136;-90
2021/08/19 05:39:04;;;;;;;0.00;0.00;;;;;;;20.90;61.10;101358.78;5030734;28;20439;-90
2021/08/19 05:41:31;;;;;;;0.85;0.85;;;;;;;20.93;61.15;101369.34;5039601;28;20033;-90
2021/08/19 05:44:01;;;;;;;0.20;0.20;;;;;;;20.90;60.97;101368.66;5025731;28;20033;-90
2021/08/19 05:46:27;;;;;;;0.10;0.10;;;;;;;20.89;61.09;101369.63;5028705;28;20026;-84
2021/08/19 05:48:55;;;;;;;0.00;0.00;;;;;;;20.88;61.01;101370.59;5032666;28;20056;-89
2021/08/19 05:51:22;;;;;;;0.10;0.10;;;;;;;20.93;61.01;101369.34;5051100;28;20052;-91
2021/08/19 05:53:48;;;;;;;0.10;0.10;;;;;;;20.80;61.10;101373.69;5023537;28;20496;-89
2021/08/19 05:56:32;;;;;;;0.10;0.10;;;;;;;20.82;61.37;101372.66;5026655;28;20034;-93
2021/08/19 05:58:58;;;;;;;0.08;0.08;;;;;;;20.92;61.15;101373.03;5035021;28;20058;-89
2021/08/19 06:01:26;;;;;;;0.55;0.55;;;;;;;20.91;60.64;101376.69;5029862;28;20369;-87
2021/08/19 06:03:52;;;;;;;1.00;1.00;;;;;;;20.92;60.99;101381.13;5032388;28;20034;-89
2021/08/19 06:06:19;;;;;;;0.10;0.10;;;;;;;21.00;60.84;101368.06;5028814;28;20465;-89
2021/08/19 06:09:08;;;;;;;0.17;0.17;;;;;;;21.04;60.88;101365.22;5016054;28;20086;-91
2021/08/19 06:11:37;;;;;;;0.85;0.85;;;;;;;21.06;60.59;101379.44;5015947;28;20026;-90
2021/08/19 06:14:03;;;;;;;0.20;0.20;;;;;;;20.85;60.83;101377.00;5034061;28;20231;-89
2021/08/19 06:16:32;;;;;;;0.73;0.40;;;;;;;21.08;60.66;101366.78;5034599;28;20029;-91
2021/08/19 06:19:00;;;;;;;0.52;0.30;;;;;;;21.03;60.73;101379.63;5034124;28;20021;-90
2021/08/19 06:21:29;;;;;;;0.10;0.10;;;;;;;21.10;60.61;101375.66;5033766;28;20472;-91
2021/08/19 06:23:56;;;;;;;0.35;0.35;;;;;;;21.07;60.69;101367.72;5033141;28;20484;-89
2021/08/19 06:26:36;;;;;;;0.47;0.47;;;;;;;21.15;60.36;101374.41;5030895;28;20105;-90
2021/08/19 06:29:02;;;;;;;0.55;0.55;;;;;;;21.07;60.36;101371.31;5030706;28;20028;-90
2021/08/19 06:31:50;;;;;;;0.10;0.10;;;;;;;21.07;60.47;101370.41;5033259;28;20107;-90
2021/08/19 06:34:35;;;;;;;;;;;;;;;;;;;;;
2021/08/19 06:37:45;;;;;;;0.80;0.52;;;;;;;21.23;60.26;101376.69;5025280;28;20033;-91
2021/08/19 06:40:20;;;;;;;0.82;0.77;;;;;;;21.11;60.76;101371.97;5026677;28;20049;-90
2021/08/19 06:42:46;;;;;;;0.10;0.10;;;;;;;21.10;60.71;101370.25;5032894;28;20029;-90
2021/08/19 06:45:13;;;;;;;0.10;0.10;;;;;;;21.19;60.23;101369.72;5032393;28;20048;-90
2021/08/19 06:48:04;;;;;;;0.47;0.47;;;;;;;21.14;60.72;101374.53;5032677;28;20030;-91
2021/08/19 07:16:47;;;;;;;0.35;0.35;;;;;;;21.13;60.27;101386.25;5972388;23;20072;-90
2021/08/19 07:22:21;;;;;;;0.85;0.85;;;;;;;21.25;60.12;101393.63;5052854;28;20056;-91
2021/08/19 07:25:24;;;;;;;0.10;0.10;;;;;;;21.29;60.17;101387.13;5052618;28;20494;-93
2021/08/19 07:27:52;;;;;;;0.43;0.43;;;;;;;21.27;60.27;101389.03;5047728;28;20387;-90
2021/08/19 07:30:19;;;;;;;0.85;0.85;;;;;;;21.21;60.35;101394.78;5051006;28;20082;-91
2021/08/19 07:32:45;;;;;;;0.10;0.10;;;;;;;21.22;60.45;101396.53;5052868;28;20025;-87
2021/08/19 07:35:12;;;;;;;0.43;0.43;;;;;;;21.17;60.86;101399.47;5052070;23;20136;-86
2021/08/19 07:37:55;;;;;;;0.10;0.10;;;;;;;21.25;60.88;101385.56;5030632;28;20029;-86
2021/08/19 07:40:24;;;;;;;0.10;0.10;;;;;;;21.34;60.55;101401.19;5013921;28;20037;-86
2021/08/19 07:42:51;;;;;;;0.45;0.45;;;;;;;21.36;60.83;101397.53;5010049;28;20026;-86
2021/08/19 07:45:20;;;;;;;0.10;0.10;;;;;;;21.31;60.95;101398.69;5021444;28;20075;-83
2021/08/19 07:47:46;;;;;;;0.10;0.10;;;;;;;21.27;61.16;101394.44;5022519;28;21066;-84
2021/08/19 07:50:14;;;;;;;0.55;0.55;;;;;;;21.35;61.16;101399.38;5021672;28;20037;-85
2021/08/19 07:52:40;;;;;;;0.85;0.73;;;;;;;21.28;61.12;101401.56;5021558;28;20022;-84
2021/08/19 07:55:08;;;;;;;0.45;0.45;;;;;;;21.29;61.10;101403.28;5014108;28;20069;-87
2021/08/19 07:57:50;;;;;;;0.00;0.00;;;;;;;21.47;61.00;101390.59;5013402;28;20026;-84
2021/08/19 08:00:21;;;;;;;0.00;0.00;;;;;;;21.56;60.61;101402.72;5016387;28;20026;-84
2021/08/19 08:02:49;;;;;;;0.40;0.40;;;;;;;21.54;60.76;101401.88;5017902;28;20037;-85
2021/08/19 08:05:15;;;;;;;0.32;0.32;;;;;;;21.64;60.42;101408.50;5017067;28;20128;-84
2021/08/19 08:07:41;;;;;;;0.20;0.20;;;;;;;21.77;60.21;101414.09;5017086;28;20465;-83
2021/08/19 08:10:08;;;;;;;0.38;0.38;;;;;;;21.69;60.16;101407.41;5018994;28;20026;-93
2021/08/19 08:12:34;;;;;;;0.20;0.20;;;;;;;21.74;60.13;101418.78;5017564;28;20057;-86
2021/08/19 08:15:01;;;;;;;1.38;0.82;;;;;;;21.66;60.12;101413.84;4999493;28;20088;-85
2021/08/19 08:17:28;;;;;;;0.10;0.10;;;;;;;21.68;59.82;101420.00;5016866;28;20534;-87
2021/08/19 08:19:55;;;;;;;0.40;0.40;;;;;;;21.68;59.61;101424.53;5017079;28;20037;-85
2021/08/19 08:22:21;;;;;;;0.10;0.10;;;;;;;21.70;59.36;101422.63;5017824;28;20128;-87
2021/08/19 08:24:48;;;;;;;0.50;0.50;;;;;;;21.72;59.60;101420.69;5016745;28;20060;-85
2021/08/19 08:27:14;;;;;;;0.40;0.40;;;;;;;21.56;59.41;101421.59;5016930;28;20476;-86
2021/08/19 08:29:40;;;;;;;0.50;0.50;;;;;;;21.45;59.38;101424.00;5016506;28;20029;-85
2021/08/19 08:32:07;;;;;;;0.57;0.57;;;;;;;21.69;59.52;101420.88;5023527;28;20388;-86
2021/08/19 08:34:34;;;;;;;0.65;0.65;;;;;;;21.80;59.58;101424.69;5019702;28;20081;-87
2021/08/19 08:37:01;;;;;;;0.10;0.10;;;;;;;21.85;59.25;101427.13;5017177;28;20083;-85
2021/08/19 08:39:29;;;;;;;0.10;0.10;;;;;;;21.55;59.70;101427.91;5019661;28;20030;-87
2021/08/19 08:41:57;;;;;;;4.47;0.55;;;;;;;21.85;59.22;101423.56;5016835;28;20026;-85
2021/08/19 08:44:28;;;;;;;0.98;0.38;;;;;;;21.59;59.11;101432.19;5016714;28;20481;-86
2021/08/19 08:46:55;;;;;;;0.65;0.65;;;;;;;21.80;59.05;101431.91;5016573;28;20461;-86
2021/08/19 08:49:23;;;;;;;0.10;0.10;;;;;;;21.84;59.04;101435.31;5035420;28;20468;-87
2021/08/19 08:51:52;;;;;;;0.17;0.17;;;;;;;21.75;59.09;101434.88;5036020;28;20112;-86
2021/08/19 08:54:20;;;;;;;0.80;0.68;;;;;;;21.92;58.74;101428.50;5031866;28;20439;-87
2021/08/19 08:56:46;;;;;;;1.48;1.05;;;;;;;22.06;58.60;101435.78;5036217;28;20052;-85
2021/08/19 08:59:12;;;;;;;0.73;0.73;;;;;;;21.95;58.80;101439.09;5036071;28;20076;-85
2021/08/19 09:01:38;;;;;;;0.10;0.10;;;;;;;22.09;58.35;101437.44;5036567;28;20105;-86
2021/08/19 09:04:04;;;;;;;0.10;0.10;;;;;;;22.01;58.30;101447.78;5035959;28;20033;-85
2021/08/19 09:06:46;;;;;;;0.10;0.10;;;;;;;22.17;58.18;101451.34;5035716;28;20065;-86
2021/08/19 09:12:06;;;;;;;0.43;0.43;;;;;;;22.12;58.32;101448.91;5070175;28;20393;-85
2021/08/19 09:14:37;;;;;;;0.20;0.20;;;;;;;22.20;58.12;101443.06;5070641;28;20111;-86
2021/08/19 09:17:55;;;;;;;0.63;0.63;;;;;;;22.23;58.04;101453.69;5069923;28;20775;-86
2021/08/19 09:20:42;;;;;;;1.25;1.15;;;;;;;22.14;57.83;101449.69;5071983;28;20040;-85
2021/08/19 09:23:12;;;;;;;0.98;0.95;;;;;;;22.19;58.18;101456.66;5055497;28;20074;-83
2021/08/19 09:25:41;;;;;;;0.20;0.20;;;;;;;22.18;57.91;101458.47;5050589;28;20064;-87
2021/08/19 09:33:49;;;;;;;0.30;0.30;;;;;;;22.07;58.10;101447.44;5081869;27;20465;-83
2021/08/19 09:36:16;;;;;;;0.40;0.40;;;;;;;22.24;57.61;101450.03;5063137;28;20033;-85
2021/08/19 09:38:44;;;;;;;0.45;0.45;;;;;;;22.33;57.54;101448.59;5063774;28;20025;-89
2021/08/19 09:41:13;;;;;;;0.38;0.38;;;;;;;22.15;57.29;101450.56;5061792;28;20400;-87
2021/08/19 09:49:29;;;;;;;0.20;0.20;;;;;;;22.22;57.02;101453.75;5090332;27;20438;-88
2021/08/19 09:52:00;;;;;;;0.45;0.32;;;;;;;22.34;57.18;101457.56;5067463;28;20035;-83
2021/08/19 09:54:31;;;;;;;0.10;0.10;;;;;;;22.22;57.46;101457.34;5059474;28;20524;-86
2021/08/19 09:56:58;;;;;;;0.45;0.45;;;;;;;22.39;57.16;101464.47;5050107;28;20032;-87
2021/08/19 09:59:27;;;;;;;0.10;0.10;;;;;;;22.43;56.46;101459.72;5039428;28;20029;-86
2021/08/19 10:01:55;;;;;;;0.40;0.40;;;;;;;22.28;57.00;101453.38;5044568;28;20375;-85
2021/08/19 10:04:25;;;;;;;0.10;0.10;;;;;;;22.44;56.73;101456.94;5050478;28;20135;-86
2021/08/19 10:06:53;;;;;;;0.10;0.10;;;;;;;22.47;56.42;101450.50;5048907;28;20037;-86
2021/08/19 10:09:19;;;;;;;0.10;0.10;;;;;;;22.57;55.98;101454.38;5050113;28;20025;-85
2021/08/19 10:11:51;;;;;;;0.68;0.68;;;;;;;22.77;55.88;101452.28;5047242;28;20068;-86
2021/08/19 10:14:20;;;;;;;0.20;0.20;;;;;;;22.87;55.46;101452.56;5050020;28;20026;-86
2021/08/19 10:16:49;;;;;;;0.65;0.65;;;;;;;22.82;55.61;101450.16;5049294;28;20103;-86
2021/08/19 10:22:14;;;;;;;0.10;0.10;;;;;;;22.77;55.65;101457.69;5073053;27;20481;-85
2021/08/19 10:24:44;;;;;;;0.10;0.10;;;;;;;22.86;55.32;101457.09;5057655;28;20068;-85
2021/08/19 10:29:54;;;;;;;1.75;0.57;;;;;;;22.96;55.00;101453.84;5090770;27;20858;-83
2021/08/19 10:32:31;;;;;;;0.28;0.28;;;;;;;22.90;54.77;101453.25;5059273;28;20474;-83
2021/08/19 10:35:24;;;;;;;0.70;0.70;;;;;;;23.02;54.76;101453.44;5059721;28;20053;-84
2021/08/19 10:40:37;;;;;;;0.15;0.15;;;;;;;22.87;54.96;101453.44;5089139;28;20513;-86
2021/08/19 10:43:34;;;;;;;0.40;0.40;;;;;;;23.06;54.62;101452.28;5069939;28;20028;-85
2021/08/19 10:46:15;;;;;;;0.32;0.32;;;;;;;23.12;55.12;101451.88;5048909;28;20104;-85
2021/08/19 10:48:45;;;;;;;3.35;0.55;;;;;;;23.11;55.30;101450.16;5049589;28;20453;-85
2021/08/19 10:51:12;;;;;;;0.10;0.10;;;;;;;23.25;55.53;101443.88;5049231;28;20028;-85
2021/08/19 10:53:39;;;;;;;0.35;0.35;;;;;;;23.20;56.11;101448.72;5049456;28;20080;-90
2021/08/19 10:56:05;;;;;;;0.10;0.10;;;;;;;23.09;56.94;101457.47;5049674;28;20037;-86
2021/08/19 10:58:33;;;;;;;3.25;0.63;;;;;;;23.18;56.92;101450.66;5050481;28;20033;-85
2021/08/19 11:03:47;;;;;;;0.10;0.10;;;;;;;23.05;57.36;101450.53;5078708;27;20791;-83
2021/08/19 11:06:22;;;;;;;0.15;0.15;;;;;;;23.07;57.28;101470.25;5062879;28;20028;-84
2021/08/19 11:16:58;;;;;;;0.40;0.40;;;;;;;22.49;58.75;101459.34;5081287;27;20416;-83
2021/08/19 11:19:27;;;;;;;0.10;0.10;;;;;;;22.62;58.30;101470.28;5068211;28;20036;-82
2021/08/19 11:24:44;;;;;;;0.98;0.98;;;;;;;22.37;59.23;101478.94;5051808;28;20963;-87
2021/08/19 11:27:12;;;;;;;0.10;0.10;;;;;;;22.36;59.41;101474.53;5040978;28;20025;-86
2021/08/19 11:29:41;;;;;;;1.00;0.88;;;;;;;22.23;59.91;101486.06;5038586;28;20044;-87
2021/08/19 11:32:16;;;;;;;0.17;0.17;;;;;;;22.25;59.77;101481.44;5038792;28;20481;-86
2021/08/19 11:34:48;;;;;;;0.10;0.10;;;;;;;22.08;60.08;101478.84;5016941;28;20072;-87
2021/08/19 11:37:33;;;;;;;0.10;0.10;;;;;;;22.10;60.30;101479.66;5044491;28;20029;-86
2021/08/19 11:40:00;;;;;;;0.10;0.10;;;;;;;21.77;60.94;101488.72;5044049;28;20033;-87
2021/08/19 11:42:28;;;;;;;0.10;0.10;;;;;;;21.79;61.20;101481.41;5042573;28;20099;-86
2021/08/19 11:45:16;;;;;;;0.25;0.25;;;;;;;21.86;60.77;101493.59;5040462;28;20048;-86
2021/08/19 11:47:43;;;;;;;0.10;0.10;;;;;;;21.61;61.20;101494.13;5019935;28;20057;-85
2021/08/19 11:50:10;;;;;;;0.20;0.20;;;;;;;21.30;63.19;101501.19;5040389;28;20025;-87
2021/08/19 11:52:36;;;;;;;0.50;0.50;;;;;;;21.21;63.06;101502.56;5049757;28;20056;-86
2021/08/19 11:55:03;;;;;;;0.20;0.20;;;;;;;21.17;63.41;101496.47;5026571;28;20031;-86
2021/08/19 11:57:29;;;;;;;0.20;0.20;;;;;;;21.03;64.18;101495.47;5044969;28;20035;-83
2021/08/19 11:59:58;;;;;;;0.68;0.68;;;;;;;20.85;64.14;101508.97;5044193;28;20030;-85
2021/08/19 12:02:24;;;;;;;0.10;0.10;;;;;;;20.82;64.61;101507.31;5037950;28;20037;-85
2021/08/19 12:05:03;;;;;;;0.22;0.22;;;;;;;20.82;64.79;101503.75;5039597;28;20083;-87
2021/08/19 12:07:29;;;;;;;0.10;0.10;;;;;;;20.61;64.98;101503.91;5039027;28;20033;-85
2021/08/19 12:09:56;;;;;;;0.00;0.00;;;;;;;20.58;64.94;101504.03;5038856;28;20388;-84
2021/08/19 12:12:25;;;;;;;2.92;1.65;;;;;;;20.57;65.40;101513.06;5039424;28;20516;-88
2021/08/19 12:14:52;;;;;;;0.10;0.10;;;;;;;20.56;66.66;101505.97;5041415;28;20074;-90
2021/08/19 12:17:18;;;;;;;0.10;0.10;;;;;;;20.61;66.50;101509.28;5038679;28;20036;-89
2021/08/19 12:19:45;;;;;;;0.10;0.10;;;;;;;20.68;65.83;101504.44;5039416;28;20090;-82
2021/08/19 12:22:12;;;;;;;0.00;0.00;;;;;;;20.67;66.39;101508.97;5043233;28;20030;-90
2021/08/19 12:24:40;;;;;;;0.30;0.30;;;;;;;20.63;66.39;101510.06;5037400;28;20037;-83
2021/08/19 12:27:17;;;;;;;0.20;0.20;;;;;;;20.69;66.31;101516.94;5042035;28;20030;-85
2021/08/19 12:32:30;;;;;;;0.30;0.30;;;;;;;20.51;67.41;101514.25;5081924;28;20402;-89
2021/08/19 12:37:53;;;;;;;0.20;0.20;;;;;;;20.52;68.22;101515.13;5029194;28;20414;-94
2021/08/19 12:40:25;;;;;;;0.25;0.25;;;;;;;20.49;67.08;101515.28;5021500;28;20030;-89
2021/08/19 12:43:04;;;;;;;0.52;0.52;;;;;;;20.27;67.81;101516.38;5029653;28;20041;-87
2021/08/19 12:45:30;;;;;;;0.20;0.20;;;;;;;20.24;67.81;101519.22;4993626;28;20066;-88
2021/08/19 12:48:03;;;;;;;0.20;0.20;;;;;;;20.16;68.10;101513.34;5005630;28;20053;-89
2021/08/19 12:50:30;;;;;;;0.10;0.10;;;;;;;20.17;67.37;101518.63;5001835;28;20048;-89